createdAt,value
2023-05-01T00:01:06.325Z,101546.31
2023-05-01T00:03:36.187Z,101542.09
2023-05-01T00:06:08.135Z,101514.47
2023-05-01T00:08:40.460Z,101499.09
2023-05-01T00:11:12.792Z,101485.97
2023-05-01T00:13:42.293Z,101470.81
2023-05-01T00:16:12.723Z,101476.50
2023-05-01T00:18:42.620Z,101474.50
2023-05-01T00:21:12.140Z,101469.63
2023-05-01T00:23:44.376Z,101458.13
2023-05-01T00:26:13.850Z,101462.03
2023-05-01T00:28:43.354Z,101463.88
2023-05-01T00:31:12.936Z,101462.56
2023-05-01T00:33:42.473Z,101455.13
2023-05-01T00:36:12.257Z,101447.88
2023-05-01T00:38:44.316Z,101451.78
2023-05-01T00:41:14.049Z,101458.69
2023-05-01T00:43:43.529Z,101448.97
2023-05-01T00:46:13.624Z,101439.66
2023-05-01T00:48:43.374Z,101443.28
2023-05-01T00:51:13.111Z,101459.44
2023-05-01T00:53:46.314Z,101458.75
2023-05-01T00:56:16.385Z,101457.44
2023-05-01T00:58:45.933Z,101460.41
2023-05-01T01:01:15.551Z,101458.03
2023-05-01T01:03:45.180Z,101455.94
2023-05-01T01:06:18.616Z,101455.94
2023-05-01T01:08:59.096Z,101441.81
2023-05-01T01:11:34.296Z,101437.81
2023-05-01T01:14:13.734Z,101425.81
2023-05-01T01:16:48.881Z,101434.63
2023-05-01T01:19:46.246Z,101430.16
2023-05-01T01:22:24.254Z,101437.91
2023-05-01T01:25:17.527Z,101440.03
2023-05-01T01:28:03.446Z,101427.34
2023-05-01T01:30:45.018Z,101428.00
2023-05-01T01:33:41.353Z,101427.75
2023-05-01T01:36:16.342Z,101424.19
2023-05-01T01:38:49.978Z,101433.94
2023-05-01T01:41:23.925Z,101431.72
2023-05-01T01:43:58.558Z,101447.53
2023-05-01T01:46:29.562Z,101437.50
2023-05-01T01:48:59.711Z,101437.75
2023-05-01T01:51:32.715Z,101427.84
2023-05-01T01:54:03.450Z,101444.97
2023-05-01T01:56:33.880Z,101430.72
2023-05-01T01:59:04.438Z,101433.56
2023-05-01T02:01:34.165Z,101435.34
2023-05-01T02:04:05.468Z,101436.78
2023-05-01T02:06:38.308Z,101424.28
2023-05-01T02:09:08.173Z,101421.16
2023-05-01T02:11:38.108Z,101439.16
2023-05-01T02:14:09.377Z,101442.66
2023-05-01T02:16:41.016Z,101441.53
2023-05-01T02:19:10.771Z,101444.50
2023-05-01T02:21:44.176Z,101448.13
2023-05-01T02:24:16.836Z,101455.69
2023-05-01T02:26:49.848Z,101456.94
2023-05-01T02:29:19.327Z,101452.34
2023-05-01T02:31:48.949Z,101460.28
2023-05-01T02:34:18.736Z,101450.16
2023-05-01T02:36:51.191Z,101446.22
2023-05-01T02:39:21.225Z,101454.69
2023-05-01T02:41:51.812Z,101442.44
2023-05-01T02:44:22.538Z,101451.25
2023-05-01T02:46:52.720Z,101443.84
2023-05-01T02:49:23.159Z,101444.84
2023-05-01T02:51:55.618Z,101444.22
2023-05-01T02:54:25.366Z,101454.50
2023-05-01T02:56:55.079Z,101467.91
2023-05-01T02:59:24.580Z,101462.81
2023-05-01T03:01:54.260Z,101469.69
2023-05-01T03:04:23.838Z,101465.09
2023-05-01T03:06:55.978Z,101462.56
2023-05-01T03:09:25.723Z,101468.16
2023-05-01T03:11:55.242Z,101453.66
2023-05-01T03:14:25.306Z,101459.91
2023-05-01T03:16:54.901Z,101454.34
2023-05-01T03:19:24.829Z,101456.50
2023-05-01T03:21:56.947Z,101446.59
2023-05-01T03:24:27.160Z,101448.66
2023-05-01T03:26:56.765Z,101451.06
2023-05-01T03:29:26.382Z,101439.91
2023-05-01T03:31:57.762Z,101434.22
2023-05-01T03:34:27.623Z,101427.72
2023-05-01T03:36:59.719Z,101424.31
2023-05-01T03:39:29.209Z,101422.88
2023-05-01T03:41:59.182Z,101481.22
2023-05-01T03:44:28.905Z,101510.91
2023-05-01T03:46:58.373Z,101511.88
2023-05-01T03:49:28.541Z,101487.63
2023-05-01T03:52:00.793Z,101474.75
2023-05-01T03:54:30.596Z,101443.03
2023-05-01T03:57:00.712Z,101406.78
2023-05-01T03:59:30.496Z,101382.34
2023-05-01T04:02:00.113Z,101355.53
2023-05-01T04:04:30.175Z,101324.31
2023-05-01T04:07:02.920Z,101328.91
2023-05-01T04:09:32.639Z,101296.41
2023-05-01T04:12:02.822Z,101265.94
2023-05-01T04:14:32.523Z,101271.78
2023-05-01T04:17:02.074Z,101280.59
2023-05-01T04:19:31.560Z,101301.97
2023-05-01T04:22:03.887Z,101304.19
2023-05-01T04:24:33.372Z,101310.81
2023-05-01T04:27:02.894Z,101298.03
2023-05-01T04:29:32.543Z,101291.34
2023-05-01T04:32:02.193Z,101301.13
2023-05-01T04:34:32.096Z,101308.81
2023-05-01T04:37:04.492Z,101327.47
2023-05-01T04:39:34.054Z,101342.84
2023-05-01T04:42:03.712Z,101325.03
2023-05-01T04:44:34.358Z,101303.66
2023-05-01T04:47:04.819Z,101288.38
2023-05-01T04:49:34.685Z,101276.00
2023-05-01T04:52:07.476Z,101229.69
2023-05-01T04:54:36.998Z,101221.34
2023-05-01T04:57:09.820Z,101182.75
2023-05-01T04:59:39.642Z,101189.81
2023-05-01T05:02:09.179Z,101168.69
2023-05-01T05:04:38.933Z,101173.66
2023-05-01T05:07:11.511Z,101153.94
2023-05-01T05:09:41.089Z,101148.34
2023-05-01T05:12:10.585Z,101160.44
2023-05-01T05:14:42.604Z,101114.41
2023-05-01T05:17:12.820Z,101102.19
2023-05-01T05:19:42.328Z,101083.94
2023-05-01T05:22:16.972Z,101073.50
2023-05-01T05:24:47.208Z,101102.13
2023-05-01T05:27:16.721Z,101082.72
2023-05-01T05:29:46.258Z,101077.81
2023-05-01T05:32:15.883Z,101070.72
2023-05-01T05:34:45.386Z,101067.75
2023-05-01T05:37:17.462Z,101038.97
2023-05-01T05:39:46.939Z,101040.75
2023-05-01T05:42:16.449Z,101047.53
2023-05-01T05:44:46.045Z,101020.41
2023-05-01T05:47:15.604Z,101004.41
2023-05-01T05:49:45.369Z,100979.56
2023-05-01T05:52:17.668Z,100965.50
2023-05-01T05:54:47.263Z,100961.75
2023-05-01T05:57:16.753Z,100969.09
2023-05-01T05:59:47.032Z,100955.31
2023-05-01T06:02:16.712Z,100952.97
2023-05-01T06:04:46.297Z,100945.53
2023-05-01T06:07:18.385Z,100937.03
2023-05-01T06:09:47.957Z,100933.50
2023-05-01T06:12:17.548Z,100939.38
2023-05-01T06:14:47.585Z,100932.63
2023-05-01T06:17:17.474Z,100929.50
2023-05-01T06:19:47.062Z,100947.47
2023-05-01T06:22:19.618Z,100961.41
2023-05-01T06:24:49.184Z,100992.88
2023-05-01T06:27:18.654Z,100998.88
2023-05-01T06:29:48.111Z,101009.25
2023-05-01T06:32:17.617Z,101035.81
2023-05-01T06:34:47.227Z,101088.53
2023-05-01T06:37:19.290Z,101087.72
2023-05-01T06:39:50.420Z,101104.09
2023-05-01T06:42:23.021Z,101186.97
2023-05-01T06:44:52.565Z,101191.16
2023-05-01T06:47:22.492Z,101235.78
2023-05-01T06:49:52.047Z,101260.44
2023-05-01T06:52:24.155Z,101329.72
2023-05-01T06:54:53.816Z,101315.19
2023-05-01T06:57:23.445Z,101338.88
2023-05-01T06:59:52.986Z,101375.25
2023-05-01T07:02:22.493Z,101389.91
2023-05-01T07:04:52.035Z,101384.75
2023-05-01T07:07:24.353Z,101412.97
2023-05-01T07:09:54.300Z,101422.38
2023-05-01T07:12:24.078Z,101424.13
2023-05-01T07:14:53.637Z,101489.88
2023-05-01T07:17:23.181Z,101515.13
2023-05-01T07:19:52.691Z,101531.31
2023-05-01T07:22:24.788Z,101536.91
2023-05-01T07:24:54.325Z,101537.69
2023-05-01T07:27:24.915Z,101528.84
2023-05-01T07:29:54.788Z,101523.91
2023-05-01T07:32:24.442Z,101531.56
2023-05-01T07:34:54.904Z,101529.41
2023-05-01T07:37:27.186Z,101534.56
2023-05-01T07:39:56.906Z,101533.31
2023-05-01T07:42:26.589Z,101524.88
2023-05-01T07:44:56.317Z,101518.34
2023-05-01T07:47:27.756Z,101517.41
2023-05-01T07:49:57.531Z,101516.59
2023-05-01T07:52:29.841Z,101508.69
2023-05-01T07:54:59.407Z,101511.44
2023-05-01T07:57:28.957Z,101498.84
2023-05-01T07:59:58.830Z,101484.13
2023-05-01T08:02:28.680Z,101486.91
2023-05-01T08:04:58.361Z,101501.38
2023-05-01T08:07:30.458Z,101511.59
2023-05-01T08:10:00.816Z,101468.78
2023-05-01T08:12:31.636Z,101451.38
2023-05-01T08:15:01.137Z,101433.53
2023-05-01T08:17:30.669Z,101427.84
2023-05-01T08:20:00.208Z,101406.38
2023-05-01T08:22:32.617Z,101415.06
2023-05-01T08:25:02.880Z,101420.59
2023-05-01T08:27:32.335Z,101400.31
2023-05-01T08:30:01.884Z,101407.47
2023-05-01T08:32:32.422Z,101402.38
2023-05-01T08:35:02.062Z,101418.91
2023-05-01T08:37:34.261Z,101422.00
2023-05-01T08:40:08.438Z,101442.94
2023-05-01T08:42:39.148Z,101442.69
2023-05-01T08:45:10.959Z,101441.47
2023-05-01T08:47:43.566Z,101434.34
2023-05-01T08:50:14.122Z,101418.31
2023-05-01T08:52:47.148Z,101433.50
2023-05-01T08:55:17.902Z,101406.69
2023-05-01T08:57:48.674Z,101393.75
2023-05-01T09:00:22.250Z,101390.09
2023-05-01T09:02:52.760Z,101386.78
2023-05-01T09:05:23.524Z,101390.56
2023-05-01T09:07:56.839Z,101402.47
2023-05-01T09:10:27.579Z,101373.50
2023-05-01T09:12:59.972Z,101371.25
2023-05-01T09:15:30.295Z,101373.34
2023-05-01T09:18:03.628Z,101378.66
2023-05-01T09:20:37.397Z,101359.56
2023-05-01T09:23:09.539Z,101360.13
2023-05-01T09:25:39.108Z,101346.72
2023-05-01T09:28:08.669Z,101345.44
2023-05-01T09:30:39.560Z,101346.19
2023-05-01T09:33:13.326Z,101339.41
2023-05-01T09:35:56.274Z,101326.84
2023-05-01T09:38:30.217Z,101323.69
2023-05-01T09:41:06.853Z,101301.41
2023-05-01T09:43:36.809Z,101289.78
2023-05-01T09:46:09.710Z,101275.09
2023-05-01T09:48:40.414Z,101290.28
2023-05-01T09:51:25.598Z,101307.44
2023-05-01T09:53:58.890Z,101316.72
2023-05-01T09:56:29.415Z,101321.28
2023-05-01T09:59:00.248Z,101303.06
2023-05-01T10:01:42.850Z,101281.53
2023-05-01T10:04:12.648Z,101277.03
2023-05-01T10:06:42.772Z,101281.28
2023-05-01T10:09:17.756Z,101236.19
2023-05-01T10:11:52.328Z,101229.50
2023-05-01T10:14:24.317Z,101208.59
2023-05-01T10:16:54.754Z,101224.59
2023-05-01T10:19:24.453Z,101220.72
2023-05-01T10:21:54.038Z,101234.63
2023-05-01T10:24:26.811Z,101227.47
2023-05-01T10:26:56.771Z,101229.38
2023-05-01T10:29:30.809Z,101212.88
2023-05-01T10:32:00.789Z,101222.34
2023-05-01T10:34:30.958Z,101218.41
2023-05-01T10:37:03.182Z,101216.09
2023-05-01T10:39:36.339Z,101203.72
2023-05-01T10:42:11.557Z,101143.09
2023-05-01T10:44:41.772Z,101143.38
2023-05-01T10:47:42.967Z,101155.09
2023-05-01T10:50:16.151Z,101132.44
2023-05-01T10:53:16.538Z,101129.19
2023-05-01T10:55:49.536Z,101131.34
2023-05-01T10:58:57.976Z,101135.81
2023-05-01T11:01:31.874Z,101131.34
2023-05-01T11:04:02.792Z,101129.88
2023-05-01T11:06:33.008Z,101142.25
2023-05-01T11:09:03.048Z,101143.50
2023-05-01T11:11:53.239Z,101143.00
2023-05-01T11:14:23.403Z,101144.91
2023-05-01T11:16:53.095Z,101137.00
2023-05-01T11:19:52.746Z,101143.53
2023-05-01T11:22:22.353Z,101130.44
2023-05-01T11:24:52.101Z,101122.63
2023-05-01T11:27:24.813Z,101112.50
2023-05-01T11:29:54.774Z,101117.69
2023-05-01T11:32:27.796Z,101117.69
2023-05-01T11:35:00.081Z,101106.47
2023-05-01T11:37:44.995Z,101110.72
2023-05-01T11:40:24.582Z,101095.44
2023-05-01T11:43:03.285Z,101096.56
2023-05-01T11:45:33.594Z,101098.19
2023-05-01T11:48:04.641Z,101105.31
2023-05-01T11:50:36.051Z,101094.41
2023-05-01T11:53:06.621Z,101075.63
2023-05-01T11:55:38.594Z,101070.06
2023-05-01T11:58:11.039Z,101079.31
2023-05-01T12:00:42.100Z,101070.25
2023-05-01T12:03:13.308Z,101065.41
2023-05-01T12:05:44.088Z,101052.84
2023-05-01T12:08:18.701Z,101048.81
2023-05-01T12:10:49.552Z,101029.94
2023-05-01T12:13:22.539Z,101043.25
2023-05-01T12:15:54.618Z,101047.50
2023-05-01T12:18:24.424Z,101031.47
2023-05-01T12:20:56.445Z,101040.88
2023-05-01T12:23:34.158Z,101039.41
2023-05-01T12:26:04.652Z,101013.97
2023-05-01T12:28:37.689Z,101005.25
2023-05-01T12:31:07.961Z,100997.34
2023-05-01T12:33:37.592Z,101012.56
2023-05-01T12:36:13.582Z,101002.09
2023-05-01T12:38:43.089Z,101005.53
2023-05-01T12:41:13.565Z,100998.00
2023-05-01T12:43:45.648Z,100994.13
2023-05-01T12:46:17.824Z,100999.41
2023-05-01T12:48:49.316Z,100993.38
2023-05-01T12:51:21.628Z,100976.25
2023-05-01T12:53:51.840Z,100979.88
2023-05-01T12:56:26.104Z,100961.63
2023-05-01T12:58:58.462Z,100960.56
2023-05-01T13:01:28.822Z,100985.50
2023-05-01T13:03:59.500Z,100973.91
2023-05-01T13:06:36.968Z,100976.19
2023-05-01T13:09:11.156Z,100971.81
2023-05-01T13:11:41.081Z,100973.38
2023-05-01T13:14:13.569Z,100971.06
2023-05-01T13:16:48.490Z,100953.06
2023-05-01T13:19:28.988Z,100953.28
2023-05-01T13:21:59.516Z,100958.53
2023-05-01T13:24:38.948Z,100956.34
2023-05-01T13:27:08.859Z,100946.44
2023-05-01T13:29:41.860Z,100948.13
2023-05-01T13:32:15.140Z,100951.97
2023-05-01T13:34:45.963Z,100953.28
2023-05-01T13:37:16.122Z,100945.66
2023-05-01T13:39:46.522Z,100933.25
2023-05-01T13:42:18.877Z,100943.06
2023-05-01T13:44:54.537Z,100926.38
2023-05-01T13:47:26.824Z,100937.25
2023-05-01T13:49:57.633Z,100924.56
2023-05-01T13:52:27.921Z,100931.81
2023-05-01T13:54:59.838Z,100935.13
2023-05-01T13:57:29.956Z,100917.72
2023-05-01T14:00:01.994Z,100927.53
2023-05-01T14:02:32.387Z,100922.22
2023-05-01T14:05:02.352Z,100934.44
2023-05-01T14:07:32.469Z,100917.94
2023-05-01T14:10:02.327Z,100926.66
2023-05-01T14:12:33.431Z,100933.78
2023-05-01T14:15:08.166Z,100915.25
2023-05-01T14:17:38.545Z,100928.59
2023-05-01T14:20:09.525Z,100910.47
2023-05-01T14:22:46.173Z,100921.00
2023-05-01T14:25:35.440Z,100928.81
2023-05-01T14:28:08.388Z,100923.16
2023-05-01T14:30:41.831Z,100929.16
2023-05-01T14:33:12.844Z,100933.81
2023-05-01T14:35:47.283Z,100930.22
2023-05-01T14:38:17.988Z,100934.47
2023-05-01T14:40:47.993Z,100945.81
2023-05-01T14:43:19.947Z,100943.09
2023-05-01T14:45:52.881Z,100940.44
2023-05-01T14:48:25.622Z,100951.72
2023-05-01T14:50:55.770Z,100961.41
2023-05-01T14:53:26.003Z,100941.59
2023-05-01T14:55:55.503Z,100931.38
2023-05-01T14:58:27.281Z,100933.00
2023-05-01T15:00:59.317Z,100939.81
2023-05-01T15:03:28.956Z,100956.16
2023-05-01T15:05:58.616Z,100963.56
2023-05-01T15:08:28.221Z,100973.13
2023-05-01T15:10:57.778Z,100975.72
2023-05-01T15:13:27.312Z,100966.81
2023-05-01T15:15:59.565Z,100966.63
2023-05-01T15:18:29.062Z,100967.22
2023-05-01T15:20:58.588Z,100970.72
2023-05-01T15:23:28.054Z,100971.53
2023-05-01T15:25:57.587Z,100975.84
2023-05-01T15:28:27.522Z,100980.63
2023-05-01T15:30:59.616Z,100987.59
2023-05-01T15:33:29.217Z,100996.75
2023-05-01T15:35:58.774Z,101011.31
2023-05-01T15:38:28.422Z,101014.50
2023-05-01T15:40:58.041Z,101025.41
2023-05-01T15:43:27.527Z,101035.75
2023-05-01T15:46:00.600Z,101042.69
2023-05-01T15:48:30.180Z,101043.19
2023-05-01T15:50:59.700Z,101049.97
2023-05-01T15:53:29.220Z,101057.88
2023-05-01T15:56:00.173Z,101061.13
2023-05-01T15:58:29.736Z,101060.09
2023-05-01T16:01:09.508Z,101055.16
2023-05-01T16:03:57.256Z,101052.59
2023-05-01T16:06:27.961Z,101047.72
2023-05-01T16:08:57.693Z,101056.69
2023-05-01T16:11:27.216Z,101059.44
2023-05-01T16:13:56.858Z,101049.84
2023-05-01T16:16:29.843Z,101056.03
2023-05-01T16:19:01.401Z,101056.97
2023-05-01T16:21:31.765Z,101044.84
2023-05-01T16:24:03.748Z,101073.56
2023-05-01T16:26:33.374Z,101064.72
2023-05-01T16:29:05.380Z,101081.03
2023-05-01T16:31:41.675Z,101069.84
2023-05-01T16:34:33.013Z,101076.53
2023-05-01T16:37:21.546Z,101081.38
2023-05-01T16:39:52.045Z,101092.66
2023-05-01T16:42:21.551Z,101085.69
2023-05-01T16:44:51.061Z,101088.03
2023-05-01T16:47:23.180Z,101100.78
2023-05-01T16:49:53.933Z,101100.66
2023-05-01T16:52:23.442Z,101105.91
2023-05-01T16:54:54.501Z,101112.97
2023-05-01T16:57:24.273Z,101123.53
2023-05-01T16:59:57.904Z,101125.75
2023-05-01T17:02:30.276Z,101134.97
2023-05-01T17:05:00.493Z,101156.22
2023-05-01T17:07:30.433Z,101171.25
2023-05-01T17:10:00.058Z,101172.53
2023-05-01T17:12:29.812Z,101181.56
2023-05-01T17:14:59.328Z,101186.25
2023-05-01T17:17:31.439Z,101192.34
2023-05-01T17:20:01.244Z,101192.19
2023-05-01T17:22:31.074Z,101187.03
2023-05-01T17:25:03.010Z,101183.97
2023-05-01T17:27:33.669Z,101181.03
2023-05-01T17:30:03.810Z,101188.41
2023-05-01T17:32:37.267Z,101190.59
2023-05-01T17:35:08.268Z,101203.41
2023-05-01T17:37:39.890Z,101198.16
2023-05-01T17:40:11.902Z,101207.91
2023-05-01T17:42:42.010Z,101197.88
2023-05-01T17:45:12.322Z,101208.78
2023-05-01T17:47:46.611Z,101205.03
2023-05-01T17:50:16.561Z,101212.59
2023-05-01T17:52:46.222Z,101208.84
2023-05-01T17:55:18.024Z,101207.97
2023-05-01T17:57:48.835Z,101209.66
2023-05-01T18:00:19.924Z,101213.72
2023-05-01T18:02:52.115Z,101210.28
2023-05-01T18:05:22.744Z,101205.41
2023-05-01T18:07:52.272Z,101194.00
2023-05-01T18:10:21.837Z,101201.78
2023-05-01T18:12:52.110Z,101208.00
2023-05-01T18:15:24.450Z,101208.69
2023-05-01T18:17:56.844Z,101212.72
2023-05-01T18:20:26.523Z,101200.41
2023-05-01T18:22:56.320Z,101191.75
2023-05-01T18:25:25.789Z,101191.63
2023-05-01T18:27:55.706Z,101202.84
2023-05-01T18:30:25.284Z,101194.56
2023-05-01T18:32:57.364Z,101207.28
2023-05-01T18:35:26.841Z,101212.66
2023-05-01T18:37:56.655Z,101203.69
2023-05-01T18:40:27.363Z,101194.53
2023-05-01T18:42:57.173Z,101190.72
2023-05-01T18:45:26.692Z,101186.88
2023-05-01T18:48:00.630Z,101188.41
2023-05-01T18:50:30.436Z,101196.53
2023-05-01T18:52:59.980Z,101211.81
2023-05-01T18:55:29.521Z,101210.84
2023-05-01T18:57:59.299Z,101209.72
2023-05-01T19:00:29.353Z,101216.94
2023-05-01T19:03:01.828Z,101220.16
2023-05-01T19:05:31.689Z,101225.13
2023-05-01T19:08:05.266Z,101236.94
2023-05-01T19:10:36.673Z,101228.09
2023-05-01T19:13:08.609Z,101233.75
2023-05-01T19:15:38.160Z,101241.66
2023-05-01T19:18:10.913Z,101244.25
2023-05-01T19:20:40.605Z,101245.97
2023-05-01T19:23:10.117Z,101236.91
2023-05-01T19:25:40.013Z,101233.91
2023-05-01T19:28:09.771Z,101226.22
2023-05-01T19:30:39.293Z,101217.84
2023-05-01T19:33:11.776Z,101212.63
2023-05-01T19:35:41.308Z,101196.50
2023-05-01T19:38:10.870Z,101184.22
2023-05-01T19:40:42.389Z,101170.19
2023-05-01T19:43:13.420Z,101173.63
2023-05-01T19:45:42.998Z,101154.47
2023-05-01T19:48:15.176Z,101147.94
2023-05-01T19:50:51.139Z,101160.59
2023-05-01T19:53:21.180Z,101165.47
2023-05-01T19:55:50.676Z,101146.84
2023-05-01T19:58:20.209Z,101138.94
2023-05-01T20:00:49.951Z,101137.44
2023-05-01T20:03:22.201Z,101132.66
2023-05-01T20:05:51.766Z,101125.41
2023-05-01T20:08:22.525Z,101124.31
2023-05-01T20:10:52.071Z,101119.19
2023-05-01T20:13:21.565Z,101118.91
2023-05-01T20:15:51.573Z,101108.00
2023-05-01T20:18:23.626Z,101092.63
2023-05-01T20:20:53.210Z,101073.69
2023-05-01T20:23:23.650Z,101074.72
2023-05-01T20:25:55.186Z,101070.00
2023-05-01T20:28:24.680Z,101063.91
2023-05-01T20:30:54.203Z,101047.06
2023-05-01T20:33:26.320Z,101040.66
2023-05-01T20:35:56.129Z,101028.50
2023-05-01T20:38:25.657Z,101023.28
2023-05-01T20:40:55.153Z,101011.03
2023-05-01T20:43:24.696Z,100993.06
2023-05-01T20:45:54.263Z,100986.75
2023-05-01T20:48:26.962Z,100966.19
2023-05-01T20:50:56.492Z,100950.59
2023-05-01T20:53:26.024Z,100938.72
2023-05-01T20:55:55.506Z,100916.97
2023-05-01T20:58:24.960Z,100907.03
2023-05-01T21:00:58.569Z,100878.22
2023-05-01T21:03:30.954Z,100869.19
2023-05-01T21:06:01.551Z,100856.31
2023-05-01T21:08:31.558Z,100847.44
2023-05-01T21:11:04.233Z,100827.28
2023-05-01T21:13:34.764Z,100803.16
2023-05-01T21:16:05.704Z,100792.56
2023-05-01T21:18:38.106Z,100769.94
2023-05-01T21:21:07.715Z,100742.50
2023-05-01T21:23:37.324Z,100726.91
2023-05-01T21:26:06.849Z,100711.16
2023-05-01T21:28:36.387Z,100694.84
2023-05-01T21:31:05.948Z,100680.13
2023-05-01T21:33:38.100Z,100678.66
2023-05-01T21:36:08.298Z,100664.78
2023-05-01T21:38:38.055Z,100666.56
2023-05-01T21:41:07.765Z,100655.31
2023-05-01T21:43:37.502Z,100648.41
2023-05-01T21:46:07.089Z,100640.53
2023-05-01T21:48:39.175Z,100637.00
2023-05-01T21:51:08.825Z,100635.44
2023-05-01T21:53:38.304Z,100628.34
2023-05-01T21:56:09.058Z,100622.44
2023-05-01T21:58:38.742Z,100625.88
2023-05-01T22:01:09.616Z,100622.38
2023-05-01T22:03:45.127Z,100622.22
2023-05-01T22:06:14.684Z,100621.28
2023-05-01T22:08:44.214Z,100624.00
2023-05-01T22:11:13.705Z,100620.47
2023-05-01T22:13:43.172Z,100619.38
2023-05-01T22:16:14.179Z,100624.47
2023-05-01T22:18:49.386Z,100626.91
2023-05-01T22:21:19.370Z,100626.91
2023-05-01T22:23:50.718Z,100628.63
2023-05-01T22:26:20.169Z,100638.69
2023-05-01T22:28:49.831Z,100639.56
2023-05-01T22:31:19.440Z,100639.47
2023-05-01T22:33:53.424Z,100648.72
2023-05-01T22:36:22.881Z,100653.28
2023-05-01T22:38:52.510Z,100661.00
2023-05-01T22:41:22.065Z,100664.94
2023-05-01T22:43:51.870Z,100666.81
2023-05-01T22:46:21.432Z,100677.78
2023-05-01T22:48:53.596Z,100686.47
2023-05-01T22:51:23.066Z,100688.88
2023-05-01T22:53:52.564Z,100691.63
2023-05-01T22:56:22.099Z,100700.00
2023-05-01T22:58:51.786Z,100700.06
2023-05-01T23:01:22.848Z,100706.03
2023-05-01T23:03:55.556Z,100712.75
2023-05-01T23:06:25.234Z,100719.66
2023-05-01T23:08:55.992Z,100717.88
2023-05-01T23:11:26.332Z,100730.53
2023-05-01T23:13:55.781Z,100739.44
2023-05-01T23:16:25.604Z,100738.41
2023-05-01T23:18:58.182Z,100742.66
2023-05-01T23:21:28.133Z,100747.03
2023-05-01T23:23:57.647Z,100758.78
2023-05-01T23:26:29.191Z,100769.00
2023-05-01T23:29:00.168Z,100791.44
2023-05-01T23:31:30.253Z,100800.69
2023-05-01T23:34:04.654Z,100832.44
2023-05-01T23:36:34.125Z,100854.53
2023-05-01T23:39:03.724Z,100886.28
2023-05-01T23:41:33.307Z,100938.81
2023-05-01T23:44:02.774Z,100988.53
2023-05-01T23:46:32.348Z,101050.47
2023-05-01T23:49:04.717Z,101109.03
2023-05-01T23:51:35.314Z,101148.34
2023-05-01T23:54:04.900Z,101193.00
2023-05-01T23:56:34.418Z,101241.75
2023-05-01T23:59:04.205Z,101243.59
